Flight Track Log - Related Links

Times and Time Zones

All times are in EDT time to prevent confusion due to time zone crossing. See the KAL1334 flight status page for this flight to view local times or setup timezone preferences in your user account.

Time Position Orientation Groundspeed Altitude Reporting Facility
EDT Latitude Longitude Course Direction KTS MPH feet Rate Location/Type
Sat 10:56:00 PM 34.9278 127.5895 346° North  Level Estimated
Sat 10:57:00 PM 35.0157 127.5637 346° North  Level Estimated
Sat 10:58:00 PM 35.1037 127.5378 346° North  Level Estimated
Sat 10:59:00 PM 35.1917 127.5118 346° North  Level Estimated
Sat 11:00:00 PM 35.2796 127.4858 346° North  Level Estimated
Sat 11:01:00 PM 35.3675 127.4598 346° North  Level Estimated
Sat 11:02:00 PM 35.4555 127.4336 346° North  Level Estimated
Sat 11:03:00 PM 35.5434 127.4074 346° North  Level Estimated
Sat 11:04:00 PM 35.6313 127.3812 346° North  Level Estimated
Sat 11:05:00 PM 35.7192 127.3549 346° North  Level Estimated
Sat 11:06:00 PM 35.8072 127.3286 346° North  Level Estimated
Sat 11:07:00 PM 35.8736 127.3086 346° North  Level Estimated
Sat 11:08:00 PM 35.9401 127.2886 346° North  Level Estimated
Sat 11:09:00 PM 36.0065 127.2685 346° North  Level Estimated
Sat 11:10:00 PM 36.0730 127.2485 346° North  Level Estimated
Sat 11:11:00 PM 36.1395 127.2284 346° North  Level Estimated
Sat 11:12:00 PM 36.2059 127.2083 346° North  Level Estimated
Sat 11:13:00 PM 36.2724 127.1881 346° North  Level Estimated
Sat 11:14:00 PM 36.3388 127.1679 346° North  Level Estimated
Sat 11:15:00 PM 36.4052 127.1476 346° North  Level Estimated
Sat 11:16:00 PM 36.4717 127.1274 346° North  Level Estimated
Sat 11:17:00 PM 36.5381 127.1071 346° North  Level Estimated
Sat 11:18:00 PM 36.6045 127.0867 346° North  Level Estimated
Sat 11:19:00 PM 36.6710 127.0663 346° North  Level Estimated
Sat 11:20:00 PM 36.7374 127.0459 346° North  Level Estimated
Sat 11:21:00 PM 36.8038 127.0255 346° North  Level Estimated
Sat 11:22:00 PM 36.8702 127.0050 346° North  Level Estimated
Sat 11:23:00 PM 36.9366 126.9845 346° North  Level Estimated
Sat 11:24:00 PM 37.0031 126.9639 346° North  Level Estimated
Sat 11:25:00 PM 37.0695 126.9433 346° North  Level Estimated
Sat 11:26:00 PM 37.1359 126.9227 346° North  Level Estimated
Sat 11:27:00 PM 37.2023 126.9020 346° North  Level Estimated
Sat 11:28:00 PM 37.2687 126.8813 346° North  Level Estimated
Sat 11:29:00 PM 37.3350 126.8606 346° North  Level Estimated
Sat 11:30:00 PM 37.4014 126.8398 346° North  Level Estimated
Sat 11:31:00 PM 37.4678 126.8190 346° North  Level Estimated
Sat 11:32:00 PM 37.5342 126.7982 346° North  Level Estimated
Sat 11:33:00 PM 37.5583 126.7906 346° North  Level Estimated
Sat 11:34:00 PM 37.5583 126.7906 288° West  Level Estimated
Sat 11:35:00 PM 37.5583 126.7906 288° West  Level Estimated
Sat 11:36:00 PM 37.5583 126.7906 288° West  Level Estimated

Login

Don't have an account? Register now (free) for customized features, flight alerts, and more!